createdAt,value
2019-02-19T00:00:06.008Z,990.32
2019-02-19T00:01:06.130Z,990.32
2019-02-19T00:02:06.270Z,990.37
2019-02-19T00:03:06.397Z,990.36
2019-02-19T00:04:06.525Z,990.33
2019-02-19T00:05:06.644Z,990.30
2019-02-19T00:06:06.772Z,990.29
2019-02-19T00:07:06.918Z,990.26
2019-02-19T00:08:07.041Z,990.26
2019-02-19T00:09:07.168Z,990.28
2019-02-19T00:10:07.305Z,990.25
2019-02-19T00:11:07.417Z,990.26
2019-02-19T00:12:07.535Z,990.30
2019-02-19T00:13:07.678Z,990.28
2019-02-19T00:14:07.810Z,990.29
2019-02-19T00:15:08.711Z,990.22
2019-02-19T00:16:08.064Z,990.26
2019-02-19T00:17:08.190Z,990.28
2019-02-19T00:18:08.318Z,990.25
2019-02-19T00:19:08.444Z,990.27
2019-02-19T00:20:08.575Z,990.31
2019-02-19T00:21:08.698Z,990.30
2019-02-19T00:22:08.821Z,990.33
2019-02-19T00:23:08.943Z,990.31
2019-02-19T00:24:09.071Z,990.31
2019-02-19T00:25:09.195Z,990.31
2019-02-19T00:26:09.321Z,990.30
2019-02-19T00:27:09.450Z,990.34
2019-02-19T00:28:09.579Z,990.37
2019-02-19T00:29:09.695Z,990.41
2019-02-19T00:30:09.832Z,990.39
2019-02-19T00:31:09.980Z,990.38
2019-02-19T00:32:10.115Z,990.35
2019-02-19T00:33:10.227Z,990.35
2019-02-19T00:34:10.386Z,990.42
2019-02-19T00:35:10.528Z,990.33
2019-02-19T00:36:10.636Z,990.32
2019-02-19T00:37:10.773Z,990.32
2019-02-19T00:38:10.891Z,990.32
2019-02-19T00:39:11.019Z,990.35
2019-02-19T00:40:11.150Z,990.28
2019-02-19T00:41:11.296Z,990.34
2019-02-19T00:42:11.418Z,990.31
2019-02-19T00:43:11.545Z,990.29
2019-02-19T00:44:11.694Z,990.29
2019-02-19T00:45:16.705Z,990.34
2019-02-19T00:46:11.931Z,990.31
2019-02-19T00:47:12.064Z,990.28
2019-02-19T00:48:12.252Z,990.31
2019-02-19T00:49:12.360Z,990.34
2019-02-19T00:50:12.494Z,990.32
2019-02-19T00:51:12.702Z,990.38
2019-02-19T00:52:12.749Z,990.42
2019-02-19T00:53:12.869Z,990.36
2019-02-19T00:54:13.016Z,990.38
2019-02-19T00:55:13.103Z,990.40
2019-02-19T00:56:13.224Z,990.41
2019-02-19T00:57:13.349Z,990.36
2019-02-19T00:58:13.473Z,990.34
2019-02-19T00:59:13.598Z,990.37
2019-02-19T01:00:13.727Z,990.41
2019-02-19T01:01:13.935Z,990.44
2019-02-19T01:02:13.998Z,990.39
2019-02-19T01:03:14.121Z,990.41
2019-02-19T01:04:14.237Z,990.37
2019-02-19T01:05:14.353Z,990.40
2019-02-19T01:06:14.514Z,990.34
2019-02-19T01:07:14.637Z,990.35
2019-02-19T01:08:14.762Z,990.38
2019-02-19T01:09:14.909Z,990.33
2019-02-19T01:10:15.031Z,990.33
2019-02-19T01:11:15.153Z,990.32
2019-02-19T01:12:15.284Z,990.33
2019-02-19T01:13:15.428Z,990.26
2019-02-19T01:14:15.552Z,990.28
2019-02-19T01:15:15.677Z,990.28
2019-02-19T01:16:15.836Z,990.25
2019-02-19T01:17:15.941Z,990.25
2019-02-19T01:18:16.071Z,990.24
2019-02-19T01:19:16.197Z,990.29
2019-02-19T01:20:16.348Z,990.29
2019-02-19T01:21:16.505Z,990.31
2019-02-19T01:22:16.639Z,990.26
2019-02-19T01:23:16.782Z,990.29
2019-02-19T01:24:16.914Z,990.29
2019-02-19T01:25:17.039Z,990.24
2019-02-19T01:26:17.170Z,990.24
2019-02-19T01:27:17.334Z,990.24
2019-02-19T01:28:17.452Z,990.26
2019-02-19T01:29:17.574Z,990.23
2019-02-19T01:30:17.699Z,990.23
2019-02-19T01:31:17.825Z,990.19
2019-02-19T01:32:17.987Z,990.23
2019-02-19T01:33:18.073Z,990.25
2019-02-19T01:34:18.199Z,990.24
2019-02-19T01:35:18.322Z,990.27
2019-02-19T01:36:18.450Z,990.29
2019-02-19T01:37:18.583Z,990.29
2019-02-19T01:38:18.730Z,990.32
2019-02-19T01:39:18.883Z,990.29
2019-02-19T01:40:19.005Z,990.25
2019-02-19T01:41:19.156Z,990.28
2019-02-19T01:42:19.282Z,990.29
2019-02-19T01:43:19.402Z,990.29
2019-02-19T01:44:19.527Z,990.27
2019-02-19T01:45:19.651Z,990.31
2019-02-19T01:46:19.840Z,990.30
2019-02-19T01:47:19.918Z,990.30
2019-02-19T01:48:20.049Z,990.30
2019-02-19T01:49:20.176Z,990.35
2019-02-19T01:50:20.298Z,990.33
2019-02-19T01:51:20.447Z,990.30
2019-02-19T01:52:20.571Z,990.29
2019-02-19T01:53:20.678Z,990.29
2019-02-19T01:54:20.804Z,990.29
2019-02-19T01:55:21.015Z,990.27
2019-02-19T01:56:21.058Z,990.23
2019-02-19T01:57:21.183Z,990.24
2019-02-19T01:58:21.308Z,990.22
2019-02-19T01:59:21.497Z,990.24
2019-02-19T02:00:21.538Z,990.23
2019-02-19T02:01:21.666Z,990.22
2019-02-19T02:02:21.830Z,990.21
2019-02-19T02:03:21.914Z,990.18
2019-02-19T02:04:22.042Z,990.24
2019-02-19T02:05:22.172Z,990.21
2019-02-19T02:06:22.308Z,990.24
2019-02-19T02:07:22.426Z,990.23
2019-02-19T02:08:22.557Z,990.19
2019-02-19T02:09:22.686Z,990.23
2019-02-19T02:10:22.804Z,990.22
2019-02-19T02:11:22.952Z,990.26
2019-02-19T02:12:23.075Z,990.27
2019-02-19T02:13:23.217Z,990.26
2019-02-19T02:14:23.320Z,990.26
2019-02-19T02:15:23.463Z,990.21
2019-02-19T02:16:23.584Z,990.19
2019-02-19T02:17:23.708Z,990.22
2019-02-19T02:18:23.828Z,990.21
2019-02-19T02:19:23.949Z,990.19
2019-02-19T02:20:24.083Z,990.15
2019-02-19T02:21:24.226Z,990.14
2019-02-19T02:22:24.351Z,990.09
2019-02-19T02:23:24.487Z,990.09
2019-02-19T02:24:24.630Z,990.12
2019-02-19T02:25:24.764Z,990.08
2019-02-19T02:26:24.879Z,990.05
2019-02-19T02:27:25.008Z,990.08
2019-02-19T02:28:25.129Z,990.03
2019-02-19T02:29:25.255Z,990.08
2019-02-19T02:30:25.386Z,990.07
2019-02-19T02:31:25.538Z,990.07
2019-02-19T02:32:25.641Z,990.05
2019-02-19T02:33:25.768Z,990.08
2019-02-19T02:34:25.887Z,990.06
2019-02-19T02:35:26.024Z,990.05
2019-02-19T02:36:26.149Z,990.03
2019-02-19T02:37:26.271Z,990.03
2019-02-19T02:38:26.414Z,990.05
2019-02-19T02:39:26.533Z,990.08
2019-02-19T02:40:26.665Z,990.08
2019-02-19T02:41:26.821Z,990.08
2019-02-19T02:42:26.945Z,990.11
2019-02-19T02:43:27.064Z,990.09
2019-02-19T02:44:27.186Z,990.11
2019-02-19T02:45:27.333Z,990.06
2019-02-19T02:46:27.458Z,990.03
2019-02-19T02:47:27.582Z,990.05
2019-02-19T02:48:27.716Z,990.02
2019-02-19T02:49:27.873Z,990.07
2019-02-19T02:50:28.000Z,990.04
2019-02-19T02:51:28.123Z,990.02
2019-02-19T02:52:28.264Z,990.05
2019-02-19T02:53:28.397Z,990.00
2019-02-19T02:54:28.518Z,990.04
2019-02-19T02:55:28.656Z,989.99
2019-02-19T02:56:28.776Z,989.99
2019-02-19T02:57:28.898Z,990.06
2019-02-19T02:58:29.026Z,990.01
2019-02-19T02:59:29.155Z,990.01
2019-02-19T03:00:29.274Z,990.05
2019-02-19T03:01:29.403Z,990.07
2019-02-19T03:02:29.541Z,990.01
2019-02-19T03:03:29.675Z,990.03
2019-02-19T03:04:29.800Z,990.04
2019-02-19T03:05:29.939Z,990.02
2019-02-19T03:06:30.064Z,990.09
2019-02-19T03:07:30.186Z,990.06
2019-02-19T03:08:30.311Z,990.06
2019-02-19T03:09:30.472Z,990.04
2019-02-19T03:10:30.595Z,990.02
2019-02-19T03:11:30.712Z,990.02
2019-02-19T03:12:30.839Z,990.02
2019-02-19T03:13:30.954Z,989.99
2019-02-19T03:14:31.079Z,989.96
2019-02-19T03:15:31.256Z,989.98
2019-02-19T03:16:31.376Z,989.93
2019-02-19T03:17:31.510Z,989.97
2019-02-19T03:18:31.629Z,989.92
2019-02-19T03:19:31.773Z,989.91
2019-02-19T03:20:31.895Z,989.93
2019-02-19T03:21:32.024Z,989.94
2019-02-19T03:22:32.141Z,989.94
2019-02-19T03:23:32.284Z,989.98
2019-02-19T03:24:32.408Z,989.97
2019-02-19T03:25:32.538Z,989.94
2019-02-19T03:26:32.661Z,989.91
2019-02-19T03:27:32.795Z,989.91
2019-02-19T03:28:32.914Z,989.92
2019-02-19T03:29:33.043Z,989.96
2019-02-19T03:30:33.169Z,989.93
2019-02-19T03:31:33.305Z,990.01
2019-02-19T03:32:33.460Z,989.94
2019-02-19T03:33:33.588Z,989.96
2019-02-19T03:34:33.706Z,990.02
2019-02-19T03:35:33.909Z,990.08
2019-02-19T03:36:33.985Z,990.02
2019-02-19T03:37:34.108Z,990.05
2019-02-19T03:38:34.228Z,990.06
2019-02-19T03:39:34.388Z,990.11
2019-02-19T03:40:34.511Z,990.06
2019-02-19T03:41:34.637Z,990.10
2019-02-19T03:42:34.781Z,990.11
2019-02-19T03:43:34.888Z,990.08
2019-02-19T03:44:35.001Z,990.10
2019-02-19T03:45:35.129Z,990.08
2019-02-19T03:46:35.275Z,990.08
2019-02-19T03:47:35.411Z,990.07
2019-02-19T03:48:35.537Z,990.05
2019-02-19T03:49:35.661Z,990.03
2019-02-19T03:50:35.788Z,989.96
2019-02-19T03:51:35.944Z,990.03
2019-02-19T03:52:36.055Z,989.99
2019-02-19T03:53:36.187Z,989.96
2019-02-19T03:54:36.302Z,989.91
2019-02-19T03:55:36.450Z,989.95
2019-02-19T03:56:36.604Z,989.91
2019-02-19T03:57:36.725Z,989.90
2019-02-19T03:58:36.877Z,989.86
2019-02-19T03:59:37.002Z,989.87
2019-02-19T04:00:37.131Z,989.86
2019-02-19T04:01:37.257Z,989.85
2019-02-19T04:02:37.422Z,989.91
2019-02-19T04:03:37.528Z,989.85
2019-02-19T04:04:37.659Z,989.83
2019-02-19T04:05:37.785Z,989.89
2019-02-19T04:06:37.936Z,989.89
2019-02-19T04:07:38.045Z,989.91
2019-02-19T04:08:38.178Z,989.95
2019-02-19T04:09:38.336Z,989.97
2019-02-19T04:10:38.453Z,989.88
2019-02-19T04:11:38.578Z,989.93
2019-02-19T04:12:38.705Z,989.92
2019-02-19T04:13:38.846Z,989.90
2019-02-19T04:14:38.957Z,989.92
2019-02-19T04:15:39.178Z,989.88
2019-02-19T04:16:39.188Z,989.98
2019-02-19T04:17:39.327Z,989.98
2019-02-19T04:18:39.449Z,989.94
2019-02-19T04:19:39.576Z,989.96
2019-02-19T04:20:39.699Z,990.00
2019-02-19T04:21:39.827Z,990.06
2019-02-19T04:22:39.964Z,990.04
2019-02-19T04:23:40.079Z,990.03
2019-02-19T04:24:40.213Z,990.03
2019-02-19T04:25:40.330Z,990.06
2019-02-19T04:26:40.462Z,990.02
2019-02-19T04:27:40.582Z,990.05
2019-02-19T04:28:40.708Z,989.99
2019-02-19T04:29:40.835Z,990.05
2019-02-19T04:30:40.964Z,990.06
2019-02-19T04:31:41.093Z,990.05
2019-02-19T04:32:41.218Z,990.03
2019-02-19T04:33:41.335Z,990.02
2019-02-19T04:34:41.465Z,989.94
2019-02-19T04:35:41.586Z,989.96
2019-02-19T04:36:41.714Z,989.93
2019-02-19T04:37:41.839Z,989.95
2019-02-19T04:38:41.968Z,989.97
2019-02-19T04:39:42.091Z,989.98
2019-02-19T04:40:42.217Z,990.01
2019-02-19T04:41:42.347Z,989.99
2019-02-19T04:42:42.474Z,989.99
2019-02-19T04:43:42.596Z,990.02
2019-02-19T04:44:42.719Z,990.02
2019-02-19T04:45:42.847Z,990.10
2019-02-19T04:46:42.974Z,990.10
2019-02-19T04:47:43.097Z,990.09
2019-02-19T04:48:43.226Z,990.09
2019-02-19T04:49:43.360Z,990.09
2019-02-19T04:50:43.478Z,990.08
2019-02-19T04:51:43.609Z,990.05
2019-02-19T04:52:43.734Z,990.00
2019-02-19T04:53:43.861Z,990.03
2019-02-19T04:54:43.983Z,990.03
2019-02-19T04:55:44.111Z,990.02
2019-02-19T04:56:44.233Z,990.09
2019-02-19T04:57:44.360Z,990.06
2019-02-19T04:58:44.489Z,990.08
2019-02-19T04:59:44.609Z,990.13
2019-02-19T05:00:44.736Z,990.09
2019-02-19T05:01:44.858Z,990.18
2019-02-19T05:02:45.040Z,990.21
2019-02-19T05:03:45.104Z,990.21
2019-02-19T05:04:45.232Z,990.24
2019-02-19T05:05:45.356Z,990.20
2019-02-19T05:06:45.484Z,990.15
2019-02-19T05:07:45.607Z,990.16
2019-02-19T05:08:45.738Z,990.11
2019-02-19T05:09:45.867Z,990.07
2019-02-19T05:10:45.998Z,990.03
2019-02-19T05:11:46.113Z,990.01
2019-02-19T05:12:46.238Z,990.00
2019-02-19T05:13:46.366Z,990.03
2019-02-19T05:14:46.489Z,990.05
2019-02-19T05:15:46.612Z,990.05
2019-02-19T05:16:46.741Z,990.06
2019-02-19T05:17:46.861Z,990.07
2019-02-19T05:18:46.986Z,990.10
2019-02-19T05:19:47.104Z,990.14
2019-02-19T05:20:47.233Z,990.13
2019-02-19T05:21:47.359Z,990.19
2019-02-19T05:22:47.485Z,990.19
2019-02-19T05:23:47.609Z,990.23
2019-02-19T05:24:47.732Z,990.24
2019-02-19T05:25:47.862Z,990.29
2019-02-19T05:26:47.990Z,990.23
2019-02-19T05:27:48.148Z,990.22
2019-02-19T05:28:48.267Z,990.20
2019-02-19T05:29:48.396Z,990.21
2019-02-19T05:30:48.527Z,990.26
2019-02-19T05:31:48.664Z,990.23
2019-02-19T05:32:48.790Z,990.24
2019-02-19T05:33:48.918Z,990.25
2019-02-19T05:34:49.041Z,990.28
2019-02-19T05:35:49.178Z,990.24
2019-02-19T05:36:49.309Z,990.24
2019-02-19T05:37:49.425Z,990.19
2019-02-19T05:38:49.565Z,990.27
2019-02-19T05:39:49.738Z,990.26
2019-02-19T05:40:49.863Z,990.32
2019-02-19T05:41:49.987Z,990.35
2019-02-19T05:42:50.113Z,990.32
2019-02-19T05:43:50.252Z,990.30
2019-02-19T05:44:50.369Z,990.28
2019-02-19T05:45:50.500Z,990.26
2019-02-19T05:46:50.623Z,990.30
2019-02-19T05:47:50.741Z,990.31
2019-02-19T05:48:50.867Z,990.31
2019-02-19T05:49:50.995Z,990.38
2019-02-19T05:50:51.155Z,990.36
2019-02-19T05:51:51.261Z,990.35
2019-02-19T05:52:51.390Z,990.31
2019-02-19T05:53:51.512Z,990.35
2019-02-19T05:54:51.645Z,990.33
2019-02-19T05:55:51.767Z,990.33
2019-02-19T05:56:51.883Z,990.34
2019-02-19T05:57:52.016Z,990.34
2019-02-19T05:58:52.188Z,990.35
2019-02-19T05:59:52.304Z,990.37
2019-02-19T06:00:52.436Z,990.44
2019-02-19T06:01:52.595Z,990.43
2019-02-19T06:02:52.704Z,990.45
2019-02-19T06:03:52.897Z,990.49
2019-02-19T06:04:52.938Z,990.45
2019-02-19T06:05:53.028Z,990.46
2019-02-19T06:06:53.150Z,990.48
2019-02-19T06:07:53.293Z,990.54
2019-02-19T06:08:53.426Z,990.55
2019-02-19T06:09:53.541Z,990.45
2019-02-19T06:10:53.669Z,990.43
2019-02-19T06:11:53.864Z,990.41
2019-02-19T06:12:53.888Z,990.43
2019-02-19T06:13:53.980Z,990.40
2019-02-19T06:14:54.107Z,990.44
2019-02-19T06:15:54.258Z,990.45
2019-02-19T06:16:58.473Z,990.52
2019-02-19T06:17:54.506Z,990.52
2019-02-19T06:18:54.635Z,990.52
2019-02-19T06:19:54.793Z,990.51
2019-02-19T06:20:54.908Z,990.50
2019-02-19T06:21:55.031Z,990.49
2019-02-19T06:22:55.156Z,990.51
2019-02-19T06:23:55.286Z,990.49
2019-02-19T06:24:55.395Z,990.49
2019-02-19T06:25:55.538Z,990.45
2019-02-19T06:26:55.647Z,990.51
2019-02-19T06:27:55.807Z,990.63
2019-02-19T06:28:57.769Z,990.75
2019-02-19T06:29:56.046Z,990.77
2019-02-19T06:30:56.194Z,990.69
2019-02-19T06:31:56.317Z,990.66
2019-02-19T06:32:56.469Z,990.63
2019-02-19T06:33:56.588Z,990.65
2019-02-19T06:34:56.716Z,990.69
2019-02-19T06:35:56.943Z,990.71
2019-02-19T06:36:56.985Z,990.73
2019-02-19T06:37:57.114Z,990.73
2019-02-19T06:38:57.256Z,990.72
2019-02-19T06:39:57.449Z,990.71
2019-02-19T06:40:57.521Z,990.69
2019-02-19T06:41:57.648Z,990.68
2019-02-19T06:42:57.795Z,990.64
2019-02-19T06:43:57.911Z,990.69
2019-02-19T06:44:58.036Z,990.72
2019-02-19T06:45:58.183Z,990.80
2019-02-19T06:47:06.501Z,990.74
2019-02-19T06:47:58.420Z,990.76
2019-02-19T06:48:58.558Z,990.75
2019-02-19T06:49:58.686Z,990.74
2019-02-19T06:50:58.819Z,990.77
2019-02-19T06:51:58.928Z,990.83
2019-02-19T06:52:59.096Z,990.91
2019-02-19T06:53:59.201Z,990.86
2019-02-19T06:54:59.327Z,990.86
2019-02-19T06:55:59.471Z,990.89
2019-02-19T06:56:59.583Z,990.87
2019-02-19T06:57:59.711Z,990.87
2019-02-19T06:58:59.833Z,990.86
2019-02-19T06:59:59.963Z,990.89
2019-02-19T07:01:00.087Z,990.96
2019-02-19T07:02:00.216Z,990.91
2019-02-19T07:03:00.341Z,990.92
2019-02-19T07:04:00.476Z,990.90
2019-02-19T07:05:00.595Z,990.96
2019-02-19T07:06:00.721Z,990.98
2019-02-19T07:07:00.841Z,991.04
2019-02-19T07:08:00.972Z,991.07
2019-02-19T07:09:01.100Z,991.08
2019-02-19T07:10:01.219Z,991.12
2019-02-19T07:11:01.357Z,991.12
2019-02-19T07:12:01.483Z,991.11
2019-02-19T07:13:01.603Z,991.13
2019-02-19T07:14:01.728Z,991.12
2019-02-19T07:15:01.856Z,991.18
2019-02-19T07:16:01.978Z,991.20
2019-02-19T07:17:02.112Z,991.23
2019-02-19T07:18:02.240Z,991.22
2019-02-19T07:19:02.352Z,991.18
2019-02-19T07:20:02.480Z,991.22
2019-02-19T07:21:02.606Z,991.25
2019-02-19T07:22:02.734Z,991.22
2019-02-19T07:23:02.858Z,991.26
2019-02-19T07:24:04.620Z,991.29
2019-02-19T07:25:03.123Z,991.28
2019-02-19T07:26:03.243Z,991.27
2019-02-19T07:27:03.368Z,991.27
2019-02-19T07:28:03.499Z,991.22
2019-02-19T07:29:03.626Z,991.23
2019-02-19T07:30:03.754Z,991.20
2019-02-19T07:31:03.873Z,991.25
2019-02-19T07:32:04.004Z,991.24
2019-02-19T07:33:04.133Z,991.23
2019-02-19T07:34:04.262Z,991.28
2019-02-19T07:35:04.380Z,991.29
2019-02-19T07:36:04.506Z,991.22
2019-02-19T07:37:04.632Z,991.25
2019-02-19T07:38:04.761Z,991.23
2019-02-19T07:39:04.888Z,991.20
2019-02-19T07:40:05.014Z,991.28
2019-02-19T07:41:05.143Z,991.33
2019-02-19T07:42:05.268Z,991.30
2019-02-19T07:43:05.390Z,991.33
2019-02-19T07:44:05.516Z,991.36
2019-02-19T07:45:05.645Z,991.34
2019-02-19T07:46:05.778Z,991.36
2019-02-19T07:47:05.918Z,991.38
2019-02-19T07:48:06.041Z,991.40
2019-02-19T07:49:06.146Z,991.45
2019-02-19T07:50:06.273Z,991.50
2019-02-19T07:51:06.410Z,991.51
2019-02-19T07:52:06.533Z,991.67
2019-02-19T07:53:06.662Z,991.64
2019-02-19T07:54:06.789Z,991.66
2019-02-19T07:55:06.936Z,991.61
2019-02-19T07:56:07.061Z,991.62
2019-02-19T07:57:07.183Z,991.55
2019-02-19T07:58:07.325Z,991.53
2019-02-19T07:59:07.440Z,991.51
2019-02-19T08:00:07.566Z,991.51
2019-02-19T08:01:07.693Z,991.62
2019-02-19T08:02:07.826Z,991.59
2019-02-19T08:03:07.976Z,991.60
2019-02-19T08:04:08.089Z,991.61
2019-02-19T08:05:08.219Z,991.64
2019-02-19T08:06:08.363Z,991.65
2019-02-19T08:07:08.480Z,991.66
2019-02-19T08:08:08.603Z,991.66
2019-02-19T08:09:08.732Z,991.65
2019-02-19T08:10:08.874Z,991.62
2019-02-19T08:11:09.001Z,991.65
2019-02-19T08:12:09.129Z,991.66
2019-02-19T08:13:09.263Z,991.62
2019-02-19T08:14:09.407Z,991.62
2019-02-19T08:15:09.531Z,991.57
2019-02-19T08:16:09.658Z,991.56
2019-02-19T08:17:09.784Z,991.59
2019-02-19T08:18:09.915Z,991.63
2019-02-19T08:19:10.022Z,991.63
2019-02-19T08:20:15.734Z,991.63
2019-02-19T08:21:10.280Z,991.62
2019-02-19T08:22:10.412Z,991.65
2019-02-19T08:23:10.549Z,991.65
2019-02-19T08:24:10.685Z,991.71
2019-02-19T08:25:10.807Z,991.74
2019-02-19T08:26:10.937Z,991.76
2019-02-19T08:27:11.058Z,991.82
2019-02-19T08:28:11.200Z,991.86
2019-02-19T08:29:13.759Z,991.91
2019-02-19T08:30:11.444Z,991.86
2019-02-19T08:31:11.572Z,991.85
2019-02-19T08:32:11.701Z,991.85
2019-02-19T08:33:11.828Z,991.84
2019-02-19T08:34:11.957Z,991.85
2019-02-19T08:35:12.089Z,991.82
2019-02-19T08:36:12.214Z,991.79
2019-02-19T08:37:12.345Z,991.78
2019-02-19T08:38:12.467Z,991.80
2019-02-19T08:39:12.595Z,991.81
2019-02-19T08:40:12.727Z,991.80
2019-02-19T08:41:12.855Z,991.79
2019-02-19T08:42:13.052Z,991.79
2019-02-19T08:43:13.122Z,991.83
2019-02-19T08:44:13.288Z,991.82
2019-02-19T08:45:13.400Z,991.85
2019-02-19T08:46:13.523Z,991.88
2019-02-19T08:47:13.650Z,991.85
2019-02-19T08:48:13.782Z,991.87
2019-02-19T08:49:13.903Z,991.92
2019-02-19T08:50:14.042Z,991.86
2019-02-19T08:51:14.165Z,991.84
2019-02-19T08:52:14.294Z,991.83
2019-02-19T08:53:14.420Z,991.87
2019-02-19T08:54:14.568Z,991.84
2019-02-19T08:55:14.677Z,991.87
2019-02-19T08:56:14.810Z,991.85
2019-02-19T08:57:14.941Z,991.84
2019-02-19T08:58:15.117Z,991.86
2019-02-19T08:59:15.213Z,991.93
2019-02-19T09:00:15.340Z,991.91
2019-02-19T09:01:15.494Z,991.93
2019-02-19T09:02:15.608Z,991.93
2019-02-19T09:03:16.911Z,991.97
2019-02-19T09:04:15.860Z,991.96
2019-02-19T09:05:16.029Z,991.97
2019-02-19T09:06:16.142Z,991.99
2019-02-19T09:07:16.275Z,991.99
2019-02-19T09:08:16.400Z,992.01
2019-02-19T09:09:16.546Z,992.01
2019-02-19T09:10:16.657Z,992.06
2019-02-19T09:11:16.788Z,992.01
2019-02-19T09:12:16.912Z,992.00
2019-02-19T09:13:17.037Z,992.00
2019-02-19T09:14:17.167Z,992.02
2019-02-19T09:15:17.291Z,992.04
2019-02-19T09:16:17.418Z,992.03
2019-02-19T09:17:17.546Z,992.02
2019-02-19T09:18:17.672Z,992.04
2019-02-19T09:19:17.804Z,992.04
2019-02-19T09:20:17.938Z,992.05
2019-02-19T09:21:18.058Z,992.15
2019-02-19T09:22:18.189Z,992.21
2019-02-19T09:23:18.314Z,992.22
2019-02-19T09:24:18.437Z,992.29
2019-02-19T09:25:18.565Z,992.33
2019-02-19T09:26:18.686Z,992.30
2019-02-19T09:27:18.841Z,992.30
2019-02-19T09:28:18.964Z,992.30
2019-02-19T09:29:19.085Z,992.30
2019-02-19T09:30:19.220Z,992.28
2019-02-19T09:31:19.344Z,992.33
2019-02-19T09:32:19.474Z,992.35
2019-02-19T09:33:19.607Z,992.35
2019-02-19T09:34:19.725Z,992.28
2019-02-19T09:35:19.855Z,992.28
2019-02-19T09:36:19.984Z,992.28
2019-02-19T09:37:20.125Z,992.27
2019-02-19T09:38:20.250Z,992.26
2019-02-19T09:39:20.391Z,992.23
2019-02-19T09:40:20.505Z,992.31
2019-02-19T09:41:20.659Z,992.29
2019-02-19T09:42:20.756Z,992.34
2019-02-19T09:43:20.898Z,992.28
2019-02-19T09:44:21.025Z,992.29
2019-02-19T09:45:21.156Z,992.29
2019-02-19T09:46:21.279Z,992.33
2019-02-19T09:47:21.403Z,992.39
2019-02-19T09:48:21.537Z,992.36
2019-02-19T09:49:21.660Z,992.32
2019-02-19T09:50:21.791Z,992.36
2019-02-19T09:51:21.920Z,992.44
2019-02-19T09:52:22.046Z,992.43
2019-02-19T09:53:22.178Z,992.42
2019-02-19T09:54:22.316Z,992.44
2019-02-19T09:55:22.432Z,992.44
2019-02-19T09:56:22.565Z,992.46
2019-02-19T09:57:22.695Z,992.46
2019-02-19T09:58:22.823Z,992.47
2019-02-19T09:59:22.962Z,992.47
2019-02-19T10:00:23.071Z,992.45
2019-02-19T10:01:23.199Z,992.47
2019-02-19T10:02:23.334Z,992.42
2019-02-19T10:03:23.470Z,992.45
2019-02-19T10:04:23.603Z,992.45
2019-02-19T10:05:23.795Z,992.44
2019-02-19T10:06:23.915Z,992.42
2019-02-19T10:07:24.047Z,992.44
2019-02-19T10:08:24.174Z,992.46
2019-02-19T10:09:24.333Z,992.39
2019-02-19T10:10:24.476Z,992.39
2019-02-19T10:11:24.602Z,992.45
2019-02-19T10:12:24.742Z,992.40
2019-02-19T10:13:25.203Z,992.44
2019-02-19T10:14:24.993Z,992.46
2019-02-19T10:15:25.118Z,992.44
2019-02-19T10:16:25.257Z,992.45
2019-02-19T10:17:25.398Z,992.42
2019-02-19T10:18:25.508Z,992.48
2019-02-19T10:19:26.113Z,992.44
2019-02-19T10:20:25.767Z,992.49
2019-02-19T10:21:25.922Z,992.51
2019-02-19T10:22:26.042Z,992.48
2019-02-19T10:23:26.172Z,992.51
2019-02-19T10:24:26.331Z,992.52
2019-02-19T10:25:26.461Z,992.50
2019-02-19T10:26:26.591Z,992.51
2019-02-19T10:27:26.721Z,992.51
2019-02-19T10:28:26.868Z,992.48
2019-02-19T10:29:26.986Z,992.48
2019-02-19T10:30:27.115Z,992.46
2019-02-19T10:31:27.242Z,992.49
2019-02-19T10:32:27.397Z,992.54
2019-02-19T10:33:27.518Z,992.58
2019-02-19T10:34:27.646Z,992.63
2019-02-19T10:35:27.809Z,992.62
2019-02-19T10:36:27.931Z,992.66
2019-02-19T10:37:28.056Z,992.64
2019-02-19T10:38:28.172Z,992.64
2019-02-19T10:39:28.332Z,992.66
2019-02-19T10:40:28.445Z,992.66
2019-02-19T10:41:28.580Z,992.72
2019-02-19T10:42:28.712Z,992.69
2019-02-19T10:43:28.858Z,992.68
2019-02-19T10:44:28.976Z,992.73
2019-02-19T10:45:29.112Z,992.73
2019-02-19T10:46:29.264Z,992.76
2019-02-19T10:47:29.373Z,992.75
2019-02-19T10:48:29.508Z,992.72
2019-02-19T10:49:29.642Z,992.78
2019-02-19T10:50:29.776Z,992.75
2019-02-19T10:51:29.889Z,992.75
2019-02-19T10:52:30.033Z,992.74
2019-02-19T10:53:30.168Z,992.70
2019-02-19T10:54:30.324Z,992.71
2019-02-19T10:55:30.453Z,992.70
2019-02-19T10:56:30.584Z,992.75
2019-02-19T10:57:30.711Z,992.73
2019-02-19T10:58:30.872Z,992.75
2019-02-19T10:59:30.989Z,992.78
2019-02-19T11:00:31.126Z,992.71
2019-02-19T11:01:31.256Z,992.71
2019-02-19T11:02:31.398Z,992.72
2019-02-19T11:03:31.527Z,992.70
2019-02-19T11:04:31.683Z,992.66
2019-02-19T11:05:31.812Z,992.71
2019-02-19T11:06:31.934Z,992.70
2019-02-19T11:07:32.064Z,992.70
2019-02-19T11:08:32.222Z,992.67
2019-02-19T11:09:32.347Z,992.64
2019-02-19T11:10:32.481Z,992.68
2019-02-19T11:11:32.637Z,992.68
2019-02-19T11:12:32.771Z,992.69
2019-02-19T11:13:32.889Z,992.65
2019-02-19T11:14:33.033Z,992.66
2019-02-19T11:15:33.161Z,992.68
2019-02-19T11:16:33.289Z,992.67
2019-02-19T11:17:33.426Z,992.68
2019-02-19T11:18:33.564Z,992.69
2019-02-19T11:19:33.675Z,992.67
2019-02-19T11:20:33.835Z,992.70
2019-02-19T11:21:33.958Z,992.67
2019-02-19T11:22:34.091Z,992.61
2019-02-19T11:23:34.218Z,992.62
2019-02-19T11:24:34.370Z,992.62
2019-02-19T11:25:34.482Z,992.55
2019-02-19T11:26:34.619Z,992.58
2019-02-19T11:27:34.744Z,992.56
2019-02-19T11:28:34.873Z,992.52
2019-02-19T11:29:34.998Z,992.56
2019-02-19T11:30:35.135Z,992.59
2019-02-19T11:31:35.269Z,992.57
2019-02-19T11:32:35.429Z,992.56
2019-02-19T11:33:35.534Z,992.50
2019-02-19T11:34:35.665Z,992.47
2019-02-19T11:35:35.809Z,992.48
2019-02-19T11:36:35.926Z,992.51
2019-02-19T11:37:37.378Z,992.49
2019-02-19T11:38:36.182Z,992.40
2019-02-19T11:39:36.328Z,992.41
2019-02-19T11:40:36.453Z,992.62
2019-02-19T11:41:36.574Z,992.44
2019-02-19T11:42:36.711Z,992.45
2019-02-19T11:43:36.835Z,992.46
2019-02-19T11:44:36.972Z,992.42
2019-02-19T11:45:37.100Z,992.44
2019-02-19T11:46:37.240Z,992.43
2019-02-19T11:47:37.375Z,992.41
2019-02-19T11:48:37.497Z,992.43
2019-02-19T11:49:37.625Z,992.42
2019-02-19T11:50:37.763Z,992.37
2019-02-19T11:51:37.889Z,992.36
2019-02-19T11:52:38.014Z,992.33
2019-02-19T11:53:38.146Z,992.32
2019-02-19T11:54:38.301Z,992.37
2019-02-19T11:55:38.503Z,992.28
2019-02-19T11:56:38.588Z,992.28
2019-02-19T11:57:38.681Z,992.30
2019-02-19T11:58:38.801Z,992.22
2019-02-19T11:59:38.933Z,992.24
2019-02-19T12:00:39.066Z,992.24
2019-02-19T12:01:39.220Z,992.17
2019-02-19T12:02:39.346Z,992.21
2019-02-19T12:03:39.477Z,992.23
2019-02-19T12:04:39.608Z,992.37
2019-02-19T12:05:39.754Z,992.27
2019-02-19T12:06:39.868Z,992.24
2019-02-19T12:07:40.042Z,992.20
2019-02-19T12:08:40.154Z,992.27
2019-02-19T12:09:40.281Z,992.23
2019-02-19T12:10:40.426Z,992.25
2019-02-19T12:11:40.554Z,992.24
2019-02-19T12:12:40.671Z,992.24
2019-02-19T12:13:40.808Z,992.26
2019-02-19T12:14:40.990Z,992.26
2019-02-19T12:15:41.076Z,992.21
2019-02-19T12:16:41.209Z,992.29
2019-02-19T12:17:41.346Z,992.26
2019-02-19T12:18:46.129Z,992.23
2019-02-19T12:19:41.620Z,992.20
2019-02-19T12:20:41.775Z,992.26
2019-02-19T12:21:41.872Z,992.17
2019-02-19T12:22:42.023Z,992.20
2019-02-19T12:23:42.158Z,992.19
2019-02-19T12:24:42.288Z,992.13
2019-02-19T12:25:42.404Z,992.08
2019-02-19T12:26:42.530Z,992.12
2019-02-19T12:27:42.668Z,992.05
2019-02-19T12:28:42.794Z,992.08
2019-02-19T12:29:42.930Z,992.10